KHPT/HPT METAR and TAF weather

Enter ICAO airport designator
Station Type Date Time Source
KHPT METAR 2022/09/26 08:35 UTC NOAA

KHPT 260835Z AUTO 31008KT 10SM CLR 08/02 A3000 RMK AO2


Station Type Date Time Source
KHPT Decoded METAR 2022/09/26 08:35 UTC NOAA

Station name not available
Sep 26, 2022 - 04:35 AM EDT / 2022.09.26 0835 UTC
Wind: from the NW (310 degrees) at 9 MPH (8 KT):0
Visibility: 10 mile(s):0
Sky conditions: clear
Temperature: 46 F (8 C)
Dew Point: 35 F (2 C)
Relative Humidity: 65%
Pressure (altimeter): 30 in. Hg (1015 hPa)
ob: KHPT 260835Z AUTO 31008KT 10SM CLR 08/02 A3000 RMK AO2
cycle: 8

Station Type Date Time Source
KHPT TAF UTC NOAA

Error!

Example: see airport list